createdAt,value
2019-02-08T00:00:44.841Z,45.70
2019-02-08T00:03:10.991Z,45.70
2019-02-08T00:05:37.161Z,45.70
2019-02-08T00:08:03.324Z,45.70
2019-02-08T00:10:29.472Z,45.80
2019-02-08T00:12:55.665Z,45.70
2019-02-08T00:15:21.838Z,45.60
2019-02-08T00:17:48.148Z,45.60
2019-02-08T00:20:14.318Z,45.70
2019-02-08T00:22:41.395Z,45.70
2019-02-08T00:25:07.557Z,45.60
2019-02-08T00:27:33.741Z,45.70
2019-02-08T00:29:59.902Z,45.80
2019-02-08T00:32:26.246Z,45.80
2019-02-08T00:34:52.424Z,45.70
2019-02-08T00:37:18.597Z,45.80
2019-02-08T00:39:44.924Z,45.70
2019-02-08T00:42:11.101Z,45.60
2019-02-08T00:44:37.257Z,45.70
2019-02-08T00:47:03.425Z,45.70
2019-02-08T00:49:29.580Z,45.70
2019-02-08T00:51:55.751Z,45.70
2019-02-08T00:54:21.905Z,45.70
2019-02-08T00:56:48.090Z,45.70
2019-02-08T00:59:14.254Z,45.60
2019-02-08T01:01:40.408Z,45.60
2019-02-08T01:04:06.788Z,45.80
2019-02-08T01:06:32.941Z,45.70
2019-02-08T01:08:59.098Z,45.70
2019-02-08T01:11:25.256Z,45.70
2019-02-08T01:13:51.409Z,45.70
2019-02-08T01:16:17.564Z,45.70
2019-02-08T01:18:43.768Z,45.80
2019-02-08T01:21:09.925Z,45.70
2019-02-08T01:23:41.015Z,45.70
2019-02-08T01:26:02.289Z,45.70
2019-02-08T01:28:28.456Z,45.70
2019-02-08T01:30:54.608Z,45.70
2019-02-08T01:33:20.785Z,45.70
2019-02-08T01:35:46.940Z,45.80
2019-02-08T01:38:13.129Z,45.70
2019-02-08T01:40:39.284Z,45.80
2019-02-08T01:43:05.439Z,45.80
2019-02-08T01:45:31.592Z,45.70
2019-02-08T01:47:58.505Z,45.70
2019-02-08T01:50:24.649Z,45.70
2019-02-08T01:52:50.805Z,46.30
2019-02-08T01:55:16.949Z,45.80
2019-02-08T01:57:43.105Z,45.90
2019-02-08T02:00:10.085Z,45.80
2019-02-08T02:02:35.439Z,45.90
2019-02-08T02:05:01.597Z,45.70
2019-02-08T02:07:27.744Z,45.80
2019-02-08T02:09:53.905Z,45.90
2019-02-08T02:12:20.053Z,45.80
2019-02-08T02:14:46.221Z,45.90
2019-02-08T02:17:12.365Z,45.80
2019-02-08T02:19:38.512Z,45.80
2019-02-08T02:22:04.679Z,45.80
2019-02-08T02:24:30.861Z,45.80
2019-02-08T02:26:57.024Z,45.80
2019-02-08T02:29:23.188Z,45.80
2019-02-08T02:31:49.335Z,45.90
2019-02-08T02:34:15.500Z,45.90
2019-02-08T02:36:41.717Z,45.90
2019-02-08T02:39:07.875Z,45.90
2019-02-08T02:41:34.024Z,45.90
2019-02-08T02:44:00.173Z,45.80
2019-02-08T02:46:26.390Z,45.90
2019-02-08T02:48:52.530Z,45.90
2019-02-08T02:51:18.685Z,45.90
2019-02-08T02:53:44.836Z,45.90
2019-02-08T02:56:10.983Z,45.80
2019-02-08T02:58:37.137Z,45.90
2019-02-08T03:01:03.280Z,45.90
2019-02-08T03:03:29.444Z,46.60
2019-02-08T03:05:55.604Z,45.80
2019-02-08T03:08:21.748Z,45.90
2019-02-08T03:10:47.900Z,45.90
2019-02-08T03:13:14.822Z,45.90
2019-02-08T03:15:40.988Z,45.90
2019-02-08T03:18:07.138Z,45.90
2019-02-08T03:20:33.307Z,45.90
2019-02-08T03:22:59.633Z,46.00
2019-02-08T03:25:25.806Z,46.00
2019-02-08T03:27:51.961Z,45.90
2019-02-08T03:30:18.137Z,46.00
2019-02-08T03:32:44.460Z,46.00
2019-02-08T03:35:10.620Z,46.00
2019-02-08T03:37:36.769Z,46.00
2019-02-08T03:40:02.937Z,46.00
2019-02-08T03:42:29.085Z,46.00
2019-02-08T03:44:55.246Z,46.00
2019-02-08T03:47:21.413Z,46.00
2019-02-08T03:49:47.565Z,46.00
2019-02-08T03:52:13.727Z,46.10
2019-02-08T03:54:39.873Z,46.10
2019-02-08T03:57:06.023Z,46.10
2019-02-08T03:59:32.181Z,46.00
2019-02-08T04:01:58.501Z,46.20
2019-02-08T04:04:24.647Z,46.00
2019-02-08T04:06:50.801Z,46.10
2019-02-08T04:09:16.955Z,46.10
2019-02-08T04:11:43.884Z,46.10
2019-02-08T04:14:10.033Z,46.10
2019-02-08T04:16:36.189Z,46.10
2019-02-08T04:19:02.349Z,46.20
2019-02-08T04:21:28.517Z,46.10
2019-02-08T04:23:54.669Z,46.00
2019-02-08T04:26:20.842Z,46.10
2019-02-08T04:28:46.995Z,46.00
2019-02-08T04:31:13.164Z,46.10
2019-02-08T04:33:39.322Z,46.10
2019-02-08T04:36:05.487Z,46.00
2019-02-08T04:38:31.631Z,46.00
2019-02-08T04:40:57.808Z,46.20
2019-02-08T04:43:23.955Z,46.20
2019-02-08T04:45:50.128Z,46.30
2019-02-08T04:48:16.284Z,46.10
2019-02-08T04:50:42.434Z,46.10
2019-02-08T04:53:08.596Z,46.10
2019-02-08T04:55:34.756Z,46.10
2019-02-08T04:58:00.909Z,46.10
2019-02-08T05:00:27.060Z,46.20
2019-02-08T05:02:53.209Z,46.20
2019-02-08T05:05:19.352Z,46.30
2019-02-08T05:07:46.277Z,46.30
2019-02-08T05:10:12.433Z,46.20
2019-02-08T05:12:38.584Z,46.20
2019-02-08T05:15:04.739Z,46.20
2019-02-08T05:17:30.910Z,46.30
2019-02-08T05:19:57.060Z,46.20
2019-02-08T05:22:23.231Z,46.20
2019-02-08T05:24:49.379Z,46.30
2019-02-08T05:27:15.547Z,46.30
2019-02-08T05:29:41.684Z,46.30
2019-02-08T05:32:07.836Z,46.20
2019-02-08T05:34:33.987Z,46.20
2019-02-08T05:37:00.146Z,46.30
2019-02-08T05:39:26.291Z,46.20
2019-02-08T05:41:52.445Z,46.40
2019-02-08T05:44:18.600Z,46.40
2019-02-08T05:46:45.075Z,46.40
2019-02-08T05:49:11.229Z,46.30
2019-02-08T05:51:37.382Z,46.40
2019-02-08T05:54:03.712Z,46.50
2019-02-08T05:56:29.856Z,46.40
2019-02-08T05:58:56.030Z,46.40
2019-02-08T06:01:22.181Z,46.40
2019-02-08T06:03:48.346Z,46.50
2019-02-08T06:06:14.488Z,46.30
2019-02-08T06:08:40.654Z,46.50
2019-02-08T06:11:06.813Z,47.20
2019-02-08T06:13:32.982Z,46.40
2019-02-08T06:15:59.136Z,46.50
2019-02-08T06:18:25.305Z,46.50
2019-02-08T06:20:51.462Z,46.50
2019-02-08T06:23:17.623Z,46.50
2019-02-08T06:25:43.787Z,46.20
2019-02-08T06:28:09.943Z,46.40
2019-02-08T06:30:36.095Z,46.50
2019-02-08T06:33:02.254Z,46.60
2019-02-08T06:35:28.422Z,46.50
2019-02-08T06:37:54.583Z,46.60
2019-02-08T06:40:20.737Z,46.50
2019-02-08T06:42:46.888Z,46.60
2019-02-08T06:45:13.045Z,46.70
2019-02-08T06:47:39.956Z,46.70
2019-02-08T06:50:06.104Z,46.70
2019-02-08T06:52:32.261Z,46.70
2019-02-08T06:54:58.433Z,46.70
2019-02-08T06:57:24.576Z,46.70
2019-02-08T06:59:50.732Z,46.70
2019-02-08T07:02:16.888Z,46.50
2019-02-08T07:04:43.061Z,46.50
2019-02-08T07:07:09.204Z,46.50
2019-02-08T07:09:35.364Z,46.50
2019-02-08T07:12:01.511Z,46.60
2019-02-08T07:14:27.702Z,46.60
2019-02-08T07:16:53.846Z,46.70
2019-02-08T07:19:20.009Z,46.70
2019-02-08T07:21:46.164Z,46.70
2019-02-08T07:24:12.315Z,46.60
2019-02-08T07:26:38.464Z,46.60
2019-02-08T07:29:04.610Z,46.80
2019-02-08T07:31:30.768Z,46.70
2019-02-08T07:33:56.930Z,46.80
2019-02-08T07:36:23.085Z,46.80
2019-02-08T07:38:49.242Z,46.80
2019-02-08T07:41:15.400Z,46.60
2019-02-08T07:43:41.563Z,46.90
2019-02-08T07:46:07.733Z,46.70
2019-02-08T07:48:33.893Z,46.90
2019-02-08T07:51:00.060Z,46.90
2019-02-08T07:53:26.211Z,46.90
2019-02-08T07:55:52.380Z,46.90
2019-02-08T07:58:18.542Z,46.80
2019-02-08T08:00:44.720Z,46.90
2019-02-08T08:03:10.874Z,46.70
2019-02-08T08:05:37.061Z,46.80
2019-02-08T08:08:03.223Z,46.90
2019-02-08T08:10:29.374Z,46.80
2019-02-08T08:12:55.518Z,46.80
2019-02-08T08:15:21.665Z,46.80
2019-02-08T08:17:47.814Z,46.90
2019-02-08T08:20:13.963Z,46.90
2019-02-08T08:22:40.114Z,46.70
2019-02-08T08:25:06.272Z,46.80
2019-02-08T08:27:32.438Z,46.80
2019-02-08T08:29:58.612Z,47.00
2019-02-08T08:32:24.786Z,46.80
2019-02-08T08:34:50.936Z,46.90
2019-02-08T08:37:17.113Z,46.80
2019-02-08T08:39:43.266Z,46.80
2019-02-08T08:42:10.194Z,46.90
2019-02-08T08:44:36.352Z,46.80
2019-02-08T08:47:02.520Z,46.50
2019-02-08T08:49:28.672Z,46.80
2019-02-08T08:51:54.821Z,46.90
2019-02-08T08:54:20.978Z,46.90
2019-02-08T08:56:47.131Z,47.00
2019-02-08T08:59:13.280Z,46.90
2019-02-08T09:01:39.435Z,47.00
2019-02-08T09:04:05.587Z,46.90
2019-02-08T09:06:31.741Z,46.90
2019-02-08T09:08:58.748Z,46.90
2019-02-08T09:11:24.901Z,47.10
2019-02-08T09:13:51.070Z,47.10
2019-02-08T09:16:17.232Z,47.10
2019-02-08T09:18:43.399Z,47.00
2019-02-08T09:21:09.553Z,47.00
2019-02-08T09:23:35.700Z,47.10
2019-02-08T09:26:01.845Z,47.10
2019-02-08T09:28:28.005Z,47.00
2019-02-08T09:30:54.159Z,47.00
2019-02-08T09:33:20.305Z,47.00
2019-02-08T09:35:46.449Z,47.10
2019-02-08T09:38:12.936Z,47.10
2019-02-08T09:40:39.655Z,47.10
2019-02-08T09:43:06.220Z,47.10
2019-02-08T09:45:32.443Z,47.20
2019-02-08T09:47:58.668Z,47.10
2019-02-08T09:50:24.897Z,47.10
2019-02-08T09:52:51.115Z,47.20
2019-02-08T09:55:17.350Z,47.10
2019-02-08T09:57:43.568Z,47.10
2019-02-08T10:00:09.805Z,47.10
2019-02-08T10:02:36.024Z,47.10
2019-02-08T10:05:02.256Z,47.20
2019-02-08T10:07:28.487Z,47.20
2019-02-08T10:09:54.705Z,47.20
2019-02-08T10:12:20.936Z,47.20
2019-02-08T10:14:47.166Z,47.20
2019-02-08T10:17:13.384Z,47.20
2019-02-08T10:19:39.544Z,47.30
2019-02-08T10:22:05.836Z,47.20
2019-02-08T10:24:32.071Z,47.30
2019-02-08T10:26:58.297Z,47.20
2019-02-08T10:29:24.530Z,47.30
2019-02-08T10:31:50.753Z,47.20
2019-02-08T10:34:16.993Z,47.40
2019-02-08T10:36:43.209Z,47.20
2019-02-08T10:39:09.442Z,47.30
2019-02-08T10:41:35.661Z,47.20
2019-02-08T10:44:01.893Z,47.20
2019-02-08T10:46:28.115Z,47.30
2019-02-08T10:48:54.340Z,47.30
2019-02-08T10:51:20.575Z,47.40
2019-02-08T10:53:52.950Z,47.20
2019-02-08T10:56:15.025Z,47.30
2019-02-08T10:58:39.257Z,47.20
2019-02-08T11:01:05.481Z,47.30
2019-02-08T11:03:31.710Z,47.40
2019-02-08T11:05:57.928Z,47.30
2019-02-08T11:08:24.152Z,47.20
2019-02-08T11:10:50.386Z,47.30
2019-02-08T11:13:16.613Z,47.30
2019-02-08T11:15:42.836Z,47.30
2019-02-08T11:18:09.072Z,47.40
2019-02-08T11:20:35.296Z,47.30
2019-02-08T11:23:01.526Z,47.40
2019-02-08T11:25:27.748Z,47.30
2019-02-08T11:27:53.976Z,47.40
2019-02-08T11:30:20.196Z,47.50
2019-02-08T11:32:46.428Z,47.30
2019-02-08T11:35:12.670Z,47.50
2019-02-08T11:37:38.884Z,47.50
2019-02-08T11:40:05.107Z,47.40
2019-02-08T11:42:31.336Z,47.50
2019-02-08T11:44:57.566Z,47.50
2019-02-08T11:47:23.793Z,47.40
2019-02-08T11:49:50.022Z,47.50
2019-02-08T11:52:16.251Z,47.50
2019-02-08T11:54:42.473Z,47.50
2019-02-08T11:57:08.698Z,47.50
2019-02-08T11:59:34.928Z,47.50
2019-02-08T12:02:01.148Z,47.40
2019-02-08T12:04:27.380Z,47.70
2019-02-08T12:06:53.600Z,47.60
2019-02-08T12:09:19.760Z,47.50
2019-02-08T12:11:45.966Z,47.60
2019-02-08T12:14:12.280Z,47.60
2019-02-08T12:16:38.515Z,47.50
2019-02-08T12:19:04.740Z,47.50
2019-02-08T12:21:30.971Z,47.50
2019-02-08T12:23:57.195Z,47.50
2019-02-08T12:26:23.420Z,47.60
2019-02-08T12:28:49.651Z,47.50
2019-02-08T12:31:15.868Z,47.50
2019-02-08T12:33:42.106Z,47.50
2019-02-08T12:36:08.336Z,47.60
2019-02-08T12:38:34.563Z,47.60
2019-02-08T12:41:00.782Z,47.50
2019-02-08T12:43:26.929Z,47.70
2019-02-08T12:45:58.968Z,47.70
2019-02-08T12:48:25.206Z,47.60
2019-02-08T12:50:51.419Z,47.70
2019-02-08T12:53:17.655Z,47.70
2019-02-08T12:55:43.874Z,47.70
2019-02-08T12:58:10.100Z,47.80
2019-02-08T13:00:36.338Z,47.90
2019-02-08T13:03:02.565Z,47.80
2019-02-08T13:05:28.792Z,47.70
2019-02-08T13:07:55.014Z,47.70
2019-02-08T13:10:21.241Z,47.80
2019-02-08T13:12:47.406Z,48.00
2019-02-08T13:15:13.697Z,47.90
2019-02-08T13:17:39.917Z,47.80
2019-02-08T13:20:06.193Z,48.00
2019-02-08T13:22:32.370Z,47.90
2019-02-08T13:24:58.608Z,48.10
2019-02-08T13:27:24.825Z,48.00
2019-02-08T13:29:51.054Z,48.00
2019-02-08T13:32:17.285Z,48.10
2019-02-08T13:34:43.908Z,48.00
2019-02-08T13:37:10.146Z,47.90
2019-02-08T13:39:36.376Z,47.90
2019-02-08T13:42:02.594Z,48.00
2019-02-08T13:44:28.829Z,48.00
2019-02-08T13:46:55.057Z,48.00
2019-02-08T13:49:21.284Z,48.10
2019-02-08T13:51:47.510Z,47.90
2019-02-08T13:54:13.735Z,47.90
2019-02-08T13:56:39.956Z,47.90
2019-02-08T13:59:06.187Z,47.90
2019-02-08T14:01:32.333Z,47.90
2019-02-08T14:03:58.646Z,48.00
2019-02-08T14:06:24.859Z,48.00
2019-02-08T14:08:51.086Z,48.00
2019-02-08T14:11:17.312Z,48.10
2019-02-08T14:13:43.537Z,48.10
2019-02-08T14:16:09.776Z,48.00
2019-02-08T14:18:36.010Z,48.10
2019-02-08T14:21:02.232Z,48.00
2019-02-08T14:23:28.453Z,48.00
2019-02-08T14:25:54.686Z,48.00
2019-02-08T14:28:20.910Z,48.00
2019-02-08T14:30:47.132Z,48.20
2019-02-08T14:33:13.367Z,48.10
2019-02-08T14:35:39.594Z,48.20
2019-02-08T14:38:05.815Z,48.10
2019-02-08T14:40:32.040Z,48.10
2019-02-08T14:42:58.192Z,48.10
2019-02-08T14:45:24.498Z,48.00
2019-02-08T14:47:50.724Z,48.00
2019-02-08T14:50:16.959Z,48.10
2019-02-08T14:52:43.172Z,48.10
2019-02-08T14:55:10.228Z,48.10
2019-02-08T14:57:36.453Z,48.10
2019-02-08T15:00:02.684Z,48.10
2019-02-08T15:02:28.905Z,48.10
2019-02-08T15:04:55.135Z,48.00
2019-02-08T15:07:21.365Z,48.10
2019-02-08T15:09:47.590Z,48.00
2019-02-08T15:12:13.823Z,48.10
2019-02-08T15:14:41.272Z,48.00
2019-02-08T15:17:07.502Z,48.00
2019-02-08T15:19:33.725Z,48.20
2019-02-08T15:21:59.944Z,48.10
2019-02-08T15:24:26.181Z,48.10
2019-02-08T15:26:52.412Z,48.10
2019-02-08T15:29:18.631Z,48.10
2019-02-08T15:31:44.862Z,48.10
2019-02-08T15:34:11.093Z,48.10
2019-02-08T15:36:37.316Z,48.10
2019-02-08T15:39:03.536Z,48.10
2019-02-08T15:41:29.764Z,48.10
2019-02-08T15:43:55.997Z,48.20
2019-02-08T15:46:22.143Z,48.20
2019-02-08T15:48:48.348Z,48.20
2019-02-08T15:51:14.676Z,48.20
2019-02-08T15:53:40.903Z,48.20
2019-02-08T15:56:07.133Z,48.10
2019-02-08T15:58:33.356Z,48.10
2019-02-08T16:00:59.585Z,48.10
2019-02-08T16:03:25.815Z,48.20
2019-02-08T16:05:52.040Z,48.10
2019-02-08T16:08:18.266Z,48.20
2019-02-08T16:10:44.506Z,48.10
2019-02-08T16:13:11.090Z,48.30
2019-02-08T16:15:37.355Z,48.20
2019-02-08T16:18:03.988Z,48.10
2019-02-08T16:20:30.221Z,48.10
2019-02-08T16:22:56.453Z,48.20
2019-02-08T16:25:22.679Z,48.20
2019-02-08T16:27:48.906Z,48.30
2019-02-08T16:30:15.133Z,48.30
2019-02-08T16:32:41.368Z,48.20
2019-02-08T16:35:07.990Z,48.30
2019-02-08T16:37:34.221Z,48.30
2019-02-08T16:40:00.450Z,48.20
2019-02-08T16:42:26.669Z,48.40
2019-02-08T16:44:54.124Z,48.10
2019-02-08T16:47:20.354Z,48.20
2019-02-08T16:49:46.588Z,48.20
2019-02-08T16:52:12.804Z,48.30
2019-02-08T16:54:39.032Z,48.20
2019-02-08T16:57:05.252Z,48.20
2019-02-08T16:59:31.488Z,48.30
2019-02-08T17:01:57.714Z,48.30
2019-02-08T17:04:23.935Z,48.30
2019-02-08T17:06:50.178Z,48.20
2019-02-08T17:09:17.892Z,48.10
2019-02-08T17:11:42.628Z,48.10
2019-02-08T17:14:08.848Z,48.30
2019-02-08T17:16:35.080Z,48.20
2019-02-08T17:19:01.305Z,48.10
2019-02-08T17:21:27.528Z,48.10
2019-02-08T17:23:53.770Z,48.10
2019-02-08T17:26:19.998Z,48.20
2019-02-08T17:28:46.211Z,48.10
2019-02-08T17:31:12.446Z,48.10
2019-02-08T17:33:38.664Z,48.20
2019-02-08T17:36:04.889Z,48.10
2019-02-08T17:38:31.116Z,48.10
2019-02-08T17:40:57.350Z,48.00
2019-02-08T17:43:29.321Z,48.00
2019-02-08T17:45:55.534Z,47.90
2019-02-08T17:48:21.762Z,48.00
2019-02-08T17:50:47.969Z,48.10
2019-02-08T17:53:14.124Z,47.90
2019-02-08T17:55:40.444Z,48.00
2019-02-08T17:58:06.664Z,48.00
2019-02-08T18:00:32.889Z,48.10
2019-02-08T18:02:59.123Z,48.10
2019-02-08T18:05:25.351Z,48.00
2019-02-08T18:07:51.581Z,48.10
2019-02-08T18:10:17.800Z,48.10
2019-02-08T18:12:44.030Z,48.00
2019-02-08T18:15:10.257Z,47.90
2019-02-08T18:17:36.478Z,48.00
2019-02-08T18:20:02.709Z,48.00
2019-02-08T18:22:28.952Z,48.10
2019-02-08T18:24:55.156Z,48.70
2019-02-08T18:27:21.304Z,48.00
2019-02-08T18:29:47.617Z,48.00
2019-02-08T18:32:13.837Z,48.10
2019-02-08T18:34:40.072Z,48.10
2019-02-08T18:37:06.296Z,48.10
2019-02-08T18:39:32.530Z,48.00
2019-02-08T18:41:58.753Z,48.00
2019-02-08T18:44:24.981Z,48.10
2019-02-08T18:46:51.210Z,48.00
2019-02-08T18:49:17.435Z,48.00
2019-02-08T18:51:43.658Z,48.10
2019-02-08T18:54:09.888Z,48.10
2019-02-08T18:56:36.112Z,48.10
2019-02-08T18:59:02.341Z,48.00
2019-02-08T19:01:28.562Z,48.00
2019-02-08T19:03:54.799Z,48.10
2019-02-08T19:06:21.027Z,48.10
2019-02-08T19:08:47.245Z,48.10
2019-02-08T19:11:13.467Z,48.00
2019-02-08T19:13:39.698Z,48.10
2019-02-08T19:16:05.924Z,48.00
2019-02-08T19:18:32.149Z,48.20
2019-02-08T19:20:58.397Z,48.10
2019-02-08T19:23:24.604Z,48.10
2019-02-08T19:25:50.841Z,48.20
2019-02-08T19:28:17.060Z,48.10
2019-02-08T19:30:43.290Z,48.20
2019-02-08T19:33:09.518Z,48.10
2019-02-08T19:35:36.262Z,48.10
2019-02-08T19:38:02.780Z,48.80
2019-02-08T19:40:29.009Z,48.20
2019-02-08T19:42:55.235Z,48.10
2019-02-08T19:45:21.469Z,48.10
2019-02-08T19:47:47.935Z,48.10
2019-02-08T19:50:13.929Z,48.20
2019-02-08T19:52:40.149Z,48.30
2019-02-08T19:55:06.384Z,48.10
2019-02-08T19:57:32.599Z,48.10
2019-02-08T19:59:58.828Z,48.20
2019-02-08T20:02:25.064Z,48.30
2019-02-08T20:04:51.286Z,48.20
2019-02-08T20:07:17.505Z,48.20
2019-02-08T20:09:43.738Z,48.20
2019-02-08T20:12:09.967Z,48.20
2019-02-08T20:14:36.193Z,48.10
2019-02-08T20:17:02.422Z,48.20
2019-02-08T20:19:28.645Z,48.10
2019-02-08T20:21:54.871Z,48.20
2019-02-08T20:24:21.095Z,48.20
2019-02-08T20:26:47.328Z,48.20
2019-02-08T20:29:13.552Z,48.10
2019-02-08T20:31:39.781Z,48.10
2019-02-08T20:34:06.005Z,48.10
2019-02-08T20:36:32.236Z,48.20
2019-02-08T20:38:58.461Z,48.20
2019-02-08T20:41:24.689Z,48.20
2019-02-08T20:43:50.918Z,48.20
2019-02-08T20:46:17.140Z,48.20
2019-02-08T20:48:43.411Z,48.20
2019-02-08T20:51:09.596Z,48.10
2019-02-08T20:53:35.821Z,48.10
2019-02-08T20:56:02.055Z,48.00
2019-02-08T20:58:28.272Z,48.10
2019-02-08T21:00:54.517Z,48.10
2019-02-08T21:03:20.733Z,48.20
2019-02-08T21:05:46.951Z,48.10
2019-02-08T21:08:13.114Z,48.10
2019-02-08T21:10:39.349Z,48.00
2019-02-08T21:13:05.634Z,48.10
2019-02-08T21:15:31.858Z,48.10
2019-02-08T21:17:58.088Z,48.10
2019-02-08T21:20:24.376Z,48.10
2019-02-08T21:22:50.540Z,48.10
2019-02-08T21:25:16.769Z,48.30
2019-02-08T21:27:43.000Z,48.10
2019-02-08T21:30:09.249Z,48.10
2019-02-08T21:32:35.453Z,48.10
2019-02-08T21:35:01.682Z,48.10
2019-02-08T21:37:27.905Z,48.10
2019-02-08T21:39:54.137Z,48.10
2019-02-08T21:42:20.367Z,48.10
2019-02-08T21:44:46.584Z,48.10
2019-02-08T21:47:12.813Z,48.20
2019-02-08T21:49:39.040Z,48.10
2019-02-08T21:52:05.272Z,48.10
2019-02-08T21:54:32.135Z,48.10
2019-02-08T21:56:57.726Z,48.00
2019-02-08T21:59:23.948Z,48.00
2019-02-08T22:01:50.172Z,47.90
2019-02-08T22:04:16.408Z,48.00
2019-02-08T22:06:42.628Z,48.10
2019-02-08T22:09:08.852Z,48.10
2019-02-08T22:11:36.315Z,48.00
2019-02-08T22:14:02.537Z,47.90
2019-02-08T22:16:28.768Z,47.90
2019-02-08T22:18:54.989Z,47.90
2019-02-08T22:21:21.214Z,47.90
2019-02-08T22:23:47.444Z,47.90
2019-02-08T22:26:13.672Z,47.90
2019-02-08T22:28:39.900Z,48.00
2019-02-08T22:31:06.124Z,48.10
2019-02-08T22:33:32.352Z,48.00
2019-02-08T22:35:58.595Z,48.10
2019-02-08T22:38:24.816Z,48.10
2019-02-08T22:40:51.039Z,48.10
2019-02-08T22:43:17.264Z,48.10
2019-02-08T22:45:43.418Z,48.00
2019-02-08T22:48:09.716Z,48.00
2019-02-08T22:50:35.951Z,48.10
2019-02-08T22:53:02.161Z,48.00
2019-02-08T22:55:28.388Z,48.10
2019-02-08T22:57:54.621Z,48.10
2019-02-08T23:00:20.849Z,48.00
2019-02-08T23:02:47.078Z,48.00
2019-02-08T23:05:13.308Z,48.00
2019-02-08T23:07:39.523Z,48.00
2019-02-08T23:10:05.753Z,48.00
2019-02-08T23:12:31.977Z,47.90
2019-02-08T23:14:58.200Z,48.00
2019-02-08T23:17:24.517Z,48.00
2019-02-08T23:19:51.068Z,48.10
2019-02-08T23:22:17.291Z,48.10
2019-02-08T23:24:43.525Z,48.00
2019-02-08T23:27:09.753Z,48.10
2019-02-08T23:29:36.401Z,48.00
2019-02-08T23:32:02.610Z,48.10
2019-02-08T23:34:28.848Z,48.10
2019-02-08T23:36:55.080Z,48.20
2019-02-08T23:39:21.296Z,48.20
2019-02-08T23:41:47.515Z,48.20
2019-02-08T23:44:13.748Z,48.20
2019-02-08T23:46:39.972Z,48.20
2019-02-08T23:49:06.196Z,48.10
2019-02-08T23:51:32.432Z,48.10
2019-02-08T23:53:58.655Z,48.20
2019-02-08T23:56:24.894Z,48.20
2019-02-08T23:58:51.111Z,48.20
